TimeCET,TemperatureF,Dew PointF,Humidity,Sea Level PressureIn,VisibilityMPH,Wind Direction,Wind SpeedMPH,Gust SpeedMPH,PrecipitationIn,Events,Conditions,WindDirDegrees,DateUTC
12:20 AM,37.4,28.4,70,30.18,5.0,North,5.8,-,N/A,,Unknown,360,2012-12-12 23:20:00
12:50 AM,39.2,28.4,65,30.18,5.0,North,5.8,-,N/A,,Unknown,360,2012-12-12 23:50:00
1:50 AM,37.4,30.2,75,30.18,5.0,NNW,4.6,-,N/A,,Partly Cloudy,340,2012-12-13 00:50:00
2:20 AM,37.4,30.2,75,30.18,5.0,North,4.6,-,N/A,,Partly Cloudy,350,2012-12-13 01:20:00
2:50 AM,35.6,28.4,75,30.18,5.0,NNW,4.6,-,N/A,,Unknown,330,2012-12-13 01:50:00
3:20 AM,35.6,30.2,81,30.18,5.0,NNW,4.6,-,N/A,,Unknown,340,2012-12-13 02:20:00
3:50 AM,37.4,30.2,75,30.18,5.0,North,6.9,-,N/A,,Scattered Clouds,350,2012-12-13 02:50:00
4:20 AM,35.6,30.2,81,30.18,5.0,NNW,4.6,-,N/A,,Scattered Clouds,340,2012-12-13 03:20:00
4:50 AM,37.4,30.2,75,30.18,5.0,NNW,4.6,-,N/A,,Scattered Clouds,340,2012-12-13 03:50:00
5:20 AM,35.6,30.2,81,30.18,5.0,NNW,4.6,-,N/A,,Scattered Clouds,330,2012-12-13 04:20:00
5:50 AM,35.6,30.2,81,30.18,5.0,NNW,4.6,-,N/A,,Scattered Clouds,340,2012-12-13 04:50:00
6:20 AM,35.6,30.2,81,30.18,6.2,NNW,4.6,-,N/A,,Scattered Clouds,330,2012-12-13 05:20:00
6:50 AM,35.6,30.2,81,30.18,6.2,NNW,3.5,-,N/A,,Scattered Clouds,330,2012-12-13 05:50:00
7:20 AM,35.6,28.4,75,30.18,-9999.0,North,4.6,-,N/A,,Clear,350,2012-12-13 06:20:00
7:50 AM,37.4,30.2,75,30.18,-9999.0,North,4.6,-,N/A,,Clear,350,2012-12-13 06:50:00
8:20 AM,37.4,30.2,75,30.21,-9999.0,NNW,4.6,-,N/A,,Clear,340,2012-12-13 07:20:00
8:50 AM,39.2,30.2,70,30.21,6.2,NW,4.6,-,N/A,,Partly Cloudy,320,2012-12-13 07:50:00
9:20 AM,39.2,30.2,70,30.21,6.2,North,5.8,-,N/A,,Partly Cloudy,360,2012-12-13 08:20:00
9:50 AM,41.0,30.2,65,30.21,6.2,North,6.9,-,N/A,,Partly Cloudy,10,2012-12-13 08:50:00
10:20 AM,42.8,30.2,61,30.21,6.2,North,4.6,-,N/A,,Partly Cloudy,360,2012-12-13 09:20:00
10:50 AM,44.6,30.2,57,30.21,6.2,North,5.8,-,N/A,,Partly Cloudy,360,2012-12-13 09:50:00
11:20 AM,46.4,32.0,57,30.21,6.2,North,5.8,-,N/A,,Partly Cloudy,360,2012-12-13 10:20:00
11:50 AM,46.4,32.0,57,30.21,6.2,North,4.6,-,N/A,,Scattered Clouds,360,2012-12-13 10:50:00
12:20 PM,48.2,32.0,54,30.21,6.2,North,3.5,-,N/A,,Mostly Cloudy,10,2012-12-13 11:20:00
12:50 PM,50.0,32.0,50,30.18,6.2,North,3.5,-,N/A,,Mostly Cloudy,350,2012-12-13 11:50:00
1:20 PM,50.0,33.8,54,30.18,6.2,NE,5.8,-,N/A,,Mostly Cloudy,40,2012-12-13 12:20:00
2:20 PM,51.8,32.0,47,30.18,6.2,North,3.5,-,N/A,,Mostly Cloudy,10,2012-12-13 13:20:00
2:50 PM,51.8,32.0,47,30.18,6.2,NNE,4.6,-,N/A,,Mostly Cloudy,30,2012-12-13 13:50:00
3:20 PM,50.0,35.6,58,30.18,6.2,NNE,5.8,-,N/A,,Mostly Cloudy,30,2012-12-13 14:20:00
3:50 PM,50.0,33.8,54,30.18,6.2,NNE,5.8,-,N/A,,Mostly Cloudy,30,2012-12-13 14:50:00
4:20 PM,48.2,35.6,62,30.18,6.2,North,4.6,-,N/A,,Mostly Cloudy,10,2012-12-13 15:20:00
4:50 PM,48.2,35.6,62,30.18,6.2,NNW,3.5,-,N/A,,Mostly Cloudy,340,2012-12-13 15:50:00
5:20 PM,48.2,33.8,58,30.18,5.0,North,4.6,-,N/A,,Mostly Cloudy,360,2012-12-13 16:20:00
5:50 PM,48.2,35.6,62,30.18,5.0,NW,4.6,-,N/A,,Mostly Cloudy,320,2012-12-13 16:50:00
6:20 PM,46.4,35.6,66,30.18,5.0,North,3.5,-,N/A,,Mostly Cloudy,350,2012-12-13 17:20:00
6:50 PM,46.4,35.6,66,30.18,5.0,NW,3.5,-,N/A,,Mostly Cloudy,310,2012-12-13 17:50:00
7:20 PM,46.4,35.6,66,30.18,5.0,NW,2.3,-,N/A,,Mostly Cloudy,320,2012-12-13 18:20:00
7:50 PM,48.2,35.6,62,30.18,4.3,NNW,3.5,-,N/A,,Mostly Cloudy,330,2012-12-13 18:50:00
8:20 PM,46.4,35.6,66,30.18,5.0,North,4.6,-,N/A,,Mostly Cloudy,10,2012-12-13 19:20:00
8:50 PM,48.2,33.8,58,30.18,4.3,North,4.6,-,N/A,,Mostly Cloudy,10,2012-12-13 19:50:00
9:20 PM,48.2,33.8,58,30.18,5.0,North,4.6,-,N/A,,Mostly Cloudy,360,2012-12-13 20:20:00
9:50 PM,48.2,33.8,58,30.18,5.0,North,4.6,-,N/A,,Mostly Cloudy,360,2012-12-13 20:50:00
10:20 PM,48.2,32.0,54,30.18,5.0,North,4.6,-,N/A,,Mostly Cloudy,360,2012-12-13 21:20:00
10:50 PM,48.2,33.8,58,30.18,5.0,North,4.6,-,N/A,,Mostly Cloudy,10,2012-12-13 21:50:00
11:20 PM,48.2,33.8,58,30.18,5.0,North,4.6,-,N/A,,Mostly Cloudy,360,2012-12-13 22:20:00